sensor_id;sensor_type;location;lat;lon;timestamp;temperature;humidity
1391;DHT22;690;51.454;7.194;2023-04-25T00:01:03;4.90;1.00
1391;DHT22;690;51.454;7.194;2023-04-25T00:03:30;5.00;1.00
1391;DHT22;690;51.454;7.194;2023-04-25T00:05:57;5.00;1.00
1391;DHT22;690;51.454;7.194;2023-04-25T00:08:27;5.00;1.00
1391;DHT22;690;51.454;7.194;2023-04-25T00:10:56;5.00;1.00
1391;DHT22;690;51.454;7.194;2023-04-25T00:13:23;5.00;1.00
1391;DHT22;690;51.454;7.194;2023-04-25T00:15:51;5.10;1.00
1391;DHT22;690;51.454;7.194;2023-04-25T00:18:18;5.20;1.00
1391;DHT22;690;51.454;7.194;2023-04-25T00:20:45;5.20;1.00
1391;DHT22;690;51.454;7.194;2023-04-25T00:23:12;5.20;1.00
1391;DHT22;690;51.454;7.194;2023-04-25T00:25:43;5.20;1.00
1391;DHT22;690;51.454;7.194;2023-04-25T00:28:11;5.10;1.00
1391;DHT22;690;51.454;7.194;2023-04-25T00:30:38;5.10;1.00
1391;DHT22;690;51.454;7.194;2023-04-25T00:33:05;5.00;1.00
1391;DHT22;690;51.454;7.194;2023-04-25T00:35:32;5.00;1.00
1391;DHT22;690;51.454;7.194;2023-04-25T00:37:59;5.10;1.00
1391;DHT22;690;51.454;7.194;2023-04-25T00:40:26;5.10;1.00
1391;DHT22;690;51.454;7.194;2023-04-25T00:42:53;5.10;1.00
1391;DHT22;690;51.454;7.194;2023-04-25T00:45:21;5.20;1.00
1391;DHT22;690;51.454;7.194;2023-04-25T00:47:50;5.10;1.00
1391;DHT22;690;51.454;7.194;2023-04-25T00:50:17;5.20;1.00
1391;DHT22;690;51.454;7.194;2023-04-25T00:52:45;5.20;1.00
1391;DHT22;690;51.454;7.194;2023-04-25T00:55:12;5.20;1.00
1391;DHT22;690;51.454;7.194;2023-04-25T00:57:39;5.20;1.00
1391;DHT22;690;51.454;7.194;2023-04-25T01:00:08;5.20;1.00
1391;DHT22;690;51.454;7.194;2023-04-25T01:02:37;5.20;1.00
1391;DHT22;690;51.454;7.194;2023-04-25T01:05:05;5.30;1.00
1391;DHT22;690;51.454;7.194;2023-04-25T01:07:31;5.30;1.00
1391;DHT22;690;51.454;7.194;2023-04-25T01:09:58;5.30;1.00
1391;DHT22;690;51.454;7.194;2023-04-25T01:12:25;5.20;1.00
1391;DHT22;690;51.454;7.194;2023-04-25T01:14:53;5.20;1.00
1391;DHT22;690;51.454;7.194;2023-04-25T01:17:20;5.20;1.00
1391;DHT22;690;51.454;7.194;2023-04-25T01:19:49;5.20;1.00
1391;DHT22;690;51.454;7.194;2023-04-25T01:22:18;5.20;1.00
1391;DHT22;690;51.454;7.194;2023-04-25T01:24:46;5.30;1.00
1391;DHT22;690;51.454;7.194;2023-04-25T01:27:14;5.30;1.00
1391;DHT22;690;51.454;7.194;2023-04-25T01:29:41;5.20;1.00
1391;DHT22;690;51.454;7.194;2023-04-25T01:32:08;5.20;1.00
1391;DHT22;690;51.454;7.194;2023-04-25T01:34:36;5.20;1.00
1391;DHT22;690;51.454;7.194;2023-04-25T01:37:03;5.20;1.00
1391;DHT22;690;51.454;7.194;2023-04-25T01:39:31;5.20;19.70
1391;DHT22;690;51.454;7.194;2023-04-25T01:41:59;5.20;30.10
1391;DHT22;690;51.454;7.194;2023-04-25T01:44:27;5.20;26.90
1391;DHT22;690;51.454;7.194;2023-04-25T01:46:54;5.20;41.00
1391;DHT22;690;51.454;7.194;2023-04-25T01:49:21;5.20;48.70
1391;DHT22;690;51.454;7.194;2023-04-25T01:51:49;5.20;81.20
1391;DHT22;690;51.454;7.194;2023-04-25T01:54:16;5.20;62.30
1391;DHT22;690;51.454;7.194;2023-04-25T01:56:50;5.20;57.20
1391;DHT22;690;51.454;7.194;2023-04-25T01:59:18;5.20;78.00
1391;DHT22;690;51.454;7.194;2023-04-25T02:01:45;5.20;81.80
1391;DHT22;690;51.454;7.194;2023-04-25T02:04:12;5.20;84.60
1391;DHT22;690;51.454;7.194;2023-04-25T02:06:39;5.30;99.90
1391;DHT22;690;51.454;7.194;2023-04-25T02:09:06;5.20;99.90
1391;DHT22;690;51.454;7.194;2023-04-25T02:11:33;5.30;99.90
1391;DHT22;690;51.454;7.194;2023-04-25T02:14:01;5.20;99.90
1391;DHT22;690;51.454;7.194;2023-04-25T02:16:28;5.30;99.90
1391;DHT22;690;51.454;7.194;2023-04-25T02:18:56;5.30;99.90
1391;DHT22;690;51.454;7.194;2023-04-25T02:21:23;5.20;99.90
1391;DHT22;690;51.454;7.194;2023-04-25T02:23:49;5.20;99.90
1391;DHT22;690;51.454;7.194;2023-04-25T02:26:17;5.20;99.90
1391;DHT22;690;51.454;7.194;2023-04-25T02:28:44;5.10;99.90
1391;DHT22;690;51.454;7.194;2023-04-25T02:31:12;5.10;99.90
1391;DHT22;690;51.454;7.194;2023-04-25T02:33:39;5.10;99.90
1391;DHT22;690;51.454;7.194;2023-04-25T02:36:06;5.00;99.90
1391;DHT22;690;51.454;7.194;2023-04-25T02:38:33;5.00;99.90
1391;DHT22;690;51.454;7.194;2023-04-25T02:41:01;5.00;99.90
1391;DHT22;690;51.454;7.194;2023-04-25T02:43:28;5.00;99.90
1391;DHT22;690;51.454;7.194;2023-04-25T02:45:55;5.00;99.90
1391;DHT22;690;51.454;7.194;2023-04-25T02:48:23;5.00;99.90
1391;DHT22;690;51.454;7.194;2023-04-25T02:50:50;5.00;99.90
1391;DHT22;690;51.454;7.194;2023-04-25T02:53:17;5.00;99.90
1391;DHT22;690;51.454;7.194;2023-04-25T02:55:44;4.90;99.90
1391;DHT22;690;51.454;7.194;2023-04-25T02:58:10;5.00;99.90
1391;DHT22;690;51.454;7.194;2023-04-25T03:00:38;5.00;99.90
1391;DHT22;690;51.454;7.194;2023-04-25T03:03:04;4.90;99.90
1391;DHT22;690;51.454;7.194;2023-04-25T03:05:33;4.90;99.90
1391;DHT22;690;51.454;7.194;2023-04-25T03:07:59;4.90;99.90
1391;DHT22;690;51.454;7.194;2023-04-25T03:10:26;4.90;99.90
1391;DHT22;690;51.454;7.194;2023-04-25T03:12:53;4.90;99.90
1391;DHT22;690;51.454;7.194;2023-04-25T03:15:20;4.90;99.90
1391;DHT22;690;51.454;7.194;2023-04-25T03:17:47;4.90;99.90
1391;DHT22;690;51.454;7.194;2023-04-25T03:20:14;5.00;99.90
1391;DHT22;690;51.454;7.194;2023-04-25T03:22:42;4.90;99.90
1391;DHT22;690;51.454;7.194;2023-04-25T03:25:10;4.90;99.90
1391;DHT22;690;51.454;7.194;2023-04-25T03:27:36;4.90;99.90
1391;DHT22;690;51.454;7.194;2023-04-25T03:30:04;4.90;99.90
1391;DHT22;690;51.454;7.194;2023-04-25T03:32:32;4.90;99.90
1391;DHT22;690;51.454;7.194;2023-04-25T03:34:58;4.90;99.90
1391;DHT22;690;51.454;7.194;2023-04-25T03:37:25;4.90;99.90
1391;DHT22;690;51.454;7.194;2023-04-25T03:39:53;4.90;99.90
1391;DHT22;690;51.454;7.194;2023-04-25T03:42:20;4.90;99.90
1391;DHT22;690;51.454;7.194;2023-04-25T03:44:48;4.90;99.90
1391;DHT22;690;51.454;7.194;2023-04-25T03:47:15;4.90;99.90
1391;DHT22;690;51.454;7.194;2023-04-25T03:49:42;4.90;99.90
1391;DHT22;690;51.454;7.194;2023-04-25T03:52:10;4.90;99.90
1391;DHT22;690;51.454;7.194;2023-04-25T03:54:37;4.90;99.90
1391;DHT22;690;51.454;7.194;2023-04-25T03:57:05;4.90;99.90
1391;DHT22;690;51.454;7.194;2023-04-25T03:59:32;4.90;99.90
1391;DHT22;690;51.454;7.194;2023-04-25T04:01:58;4.60;99.90
1391;DHT22;690;51.454;7.194;2023-04-25T04:04:25;4.40;99.90
1391;DHT22;690;51.454;7.194;2023-04-25T04:06:52;4.30;99.90
1391;DHT22;690;51.454;7.194;2023-04-25T04:09:19;4.10;99.90
1391;DHT22;690;51.454;7.194;2023-04-25T04:11:46;4.00;99.90
1391;DHT22;690;51.454;7.194;2023-04-25T04:14:32;3.90;99.90
1391;DHT22;690;51.454;7.194;2023-04-25T04:16:59;3.90;99.90
1391;DHT22;690;51.454;7.194;2023-04-25T04:19:26;3.80;99.90
1391;DHT22;690;51.454;7.194;2023-04-25T04:21:52;3.80;99.90
1391;DHT22;690;51.454;7.194;2023-04-25T04:24:19;3.90;99.90
1391;DHT22;690;51.454;7.194;2023-04-25T04:26:46;3.90;99.90
1391;DHT22;690;51.454;7.194;2023-04-25T04:29:13;3.90;99.90
1391;DHT22;690;51.454;7.194;2023-04-25T04:31:48;3.90;99.90
1391;DHT22;690;51.454;7.194;2023-04-25T04:34:14;3.80;99.90
1391;DHT22;690;51.454;7.194;2023-04-25T04:36:43;3.90;99.90
1391;DHT22;690;51.454;7.194;2023-04-25T04:39:11;3.90;99.90
1391;DHT22;690;51.454;7.194;2023-04-25T04:41:38;4.00;99.90
1391;DHT22;690;51.454;7.194;2023-04-25T04:44:05;4.00;99.90
1391;DHT22;690;51.454;7.194;2023-04-25T04:46:34;4.00;99.90
1391;DHT22;690;51.454;7.194;2023-04-25T04:49:05;4.00;99.90
1391;DHT22;690;51.454;7.194;2023-04-25T04:51:32;4.00;99.90
1391;DHT22;690;51.454;7.194;2023-04-25T04:53:59;4.00;99.90
1391;DHT22;690;51.454;7.194;2023-04-25T04:56:28;3.90;99.90
1391;DHT22;690;51.454;7.194;2023-04-25T04:58:56;3.90;99.90
1391;DHT22;690;51.454;7.194;2023-04-25T05:01:23;4.00;99.90
1391;DHT22;690;51.454;7.194;2023-04-25T05:03:50;4.00;99.90
1391;DHT22;690;51.454;7.194;2023-04-25T05:06:19;4.00;98.10
1391;DHT22;690;51.454;7.194;2023-04-25T05:08:45;4.00;96.10
1391;DHT22;690;51.454;7.194;2023-04-25T05:11:12;4.10;99.90
1391;DHT22;690;51.454;7.194;2023-04-25T05:13:39;4.10;99.20
1391;DHT22;690;51.454;7.194;2023-04-25T05:16:06;4.10;99.80
1391;DHT22;690;51.454;7.194;2023-04-25T05:18:33;4.20;96.50
1391;DHT22;690;51.454;7.194;2023-04-25T05:21:00;4.20;99.30
1391;DHT22;690;51.454;7.194;2023-04-25T05:23:28;4.30;90.80
1391;DHT22;690;51.454;7.194;2023-04-25T05:25:55;4.40;91.00
1391;DHT22;690;51.454;7.194;2023-04-25T05:28:22;4.50;91.30
1391;DHT22;690;51.454;7.194;2023-04-25T05:30:50;4.50;52.20
1391;DHT22;690;51.454;7.194;2023-04-25T05:33:17;4.60;65.00
1391;DHT22;690;51.454;7.194;2023-04-25T05:35:44;4.70;58.20
1391;DHT22;690;51.454;7.194;2023-04-25T05:38:11;4.70;51.10
1391;DHT22;690;51.454;7.194;2023-04-25T05:40:39;4.90;41.70
1391;DHT22;690;51.454;7.194;2023-04-25T05:43:06;4.90;27.70
1391;DHT22;690;51.454;7.194;2023-04-25T05:45:33;5.00;32.50
1391;DHT22;690;51.454;7.194;2023-04-25T05:48:00;5.10;26.90
1391;DHT22;690;51.454;7.194;2023-04-25T05:50:31;5.30;33.20
1391;DHT22;690;51.454;7.194;2023-04-25T05:52:58;5.30;1.00
1391;DHT22;690;51.454;7.194;2023-04-25T05:55:24;5.40;1.00
1391;DHT22;690;51.454;7.194;2023-04-25T05:57:53;5.40;1.00
1391;DHT22;690;51.454;7.194;2023-04-25T06:00:20;5.50;1.00
1391;DHT22;690;51.454;7.194;2023-04-25T06:02:48;5.60;1.00
1391;DHT22;690;51.454;7.194;2023-04-25T06:05:15;5.70;1.00
1391;DHT22;690;51.454;7.194;2023-04-25T06:07:42;5.60;1.00
1391;DHT22;690;51.454;7.194;2023-04-25T06:10:09;5.50;1.00
1391;DHT22;690;51.454;7.194;2023-04-25T06:12:36;5.50;1.00
1391;DHT22;690;51.454;7.194;2023-04-25T06:15:06;5.40;1.00
1391;DHT22;690;51.454;7.194;2023-04-25T06:17:33;5.30;1.00
1391;DHT22;690;51.454;7.194;2023-04-25T06:20:00;5.30;1.00
1391;DHT22;690;51.454;7.194;2023-04-25T06:22:27;5.20;1.00
1391;DHT22;690;51.454;7.194;2023-04-25T06:24:54;5.10;1.00
1391;DHT22;690;51.454;7.194;2023-04-25T06:27:22;5.10;1.00
1391;DHT22;690;51.454;7.194;2023-04-25T06:29:50;5.00;1.00
1391;DHT22;690;51.454;7.194;2023-04-25T06:32:18;5.10;1.00
1391;DHT22;690;51.454;7.194;2023-04-25T06:34:45;5.20;1.00
1391;DHT22;690;51.454;7.194;2023-04-25T06:37:12;5.40;1.00
1391;DHT22;690;51.454;7.194;2023-04-25T06:39:38;5.60;1.00
1391;DHT22;690;51.454;7.194;2023-04-25T06:42:05;5.70;1.00
1391;DHT22;690;51.454;7.194;2023-04-25T06:44:32;5.80;1.00
1391;DHT22;690;51.454;7.194;2023-04-25T06:46:59;5.80;1.00
1391;DHT22;690;51.454;7.194;2023-04-25T06:49:27;5.80;1.00
1391;DHT22;690;51.454;7.194;2023-04-25T06:51:54;5.90;1.00
1391;DHT22;690;51.454;7.194;2023-04-25T06:54:21;6.10;1.00
1391;DHT22;690;51.454;7.194;2023-04-25T06:56:48;6.20;1.00
1391;DHT22;690;51.454;7.194;2023-04-25T06:59:15;6.20;1.00
1391;DHT22;690;51.454;7.194;2023-04-25T07:01:42;6.10;1.00
1391;DHT22;690;51.454;7.194;2023-04-25T07:04:09;6.00;1.00
1391;DHT22;690;51.454;7.194;2023-04-25T07:06:37;6.00;1.00
1391;DHT22;690;51.454;7.194;2023-04-25T07:09:08;6.20;1.00
1391;DHT22;690;51.454;7.194;2023-04-25T07:11:35;6.30;1.00
1391;DHT22;690;51.454;7.194;2023-04-25T07:14:02;6.40;1.00
1391;DHT22;690;51.454;7.194;2023-04-25T07:16:29;6.40;1.00
1391;DHT22;690;51.454;7.194;2023-04-25T07:18:56;6.50;1.00
1391;DHT22;690;51.454;7.194;2023-04-25T07:21:23;6.50;1.00
1391;DHT22;690;51.454;7.194;2023-04-25T07:23:52;6.50;1.00
1391;DHT22;690;51.454;7.194;2023-04-25T07:26:19;6.70;1.00
1391;DHT22;690;51.454;7.194;2023-04-25T07:28:46;6.70;1.00
1391;DHT22;690;51.454;7.194;2023-04-25T07:31:16;6.90;1.00
1391;DHT22;690;51.454;7.194;2023-04-25T07:33:43;6.80;1.00
1391;DHT22;690;51.454;7.194;2023-04-25T07:36:11;6.80;99.90
1391;DHT22;690;51.454;7.194;2023-04-25T07:38:38;6.80;99.90
1391;DHT22;690;51.454;7.194;2023-04-25T07:41:06;6.80;99.90
1391;DHT22;690;51.454;7.194;2023-04-25T07:43:33;6.80;99.90
1391;DHT22;690;51.454;7.194;2023-04-25T07:46:00;6.80;99.90
1391;DHT22;690;51.454;7.194;2023-04-25T07:48:28;6.80;99.90
1391;DHT22;690;51.454;7.194;2023-04-25T07:50:55;6.80;99.90
1391;DHT22;690;51.454;7.194;2023-04-25T07:53:22;6.70;99.90
1391;DHT22;690;51.454;7.194;2023-04-25T07:55:48;6.80;99.90
1391;DHT22;690;51.454;7.194;2023-04-25T07:58:18;6.80;99.90
1391;DHT22;690;51.454;7.194;2023-04-25T08:00:47;6.90;99.90
1391;DHT22;690;51.454;7.194;2023-04-25T08:03:14;6.90;99.90
1391;DHT22;690;51.454;7.194;2023-04-25T08:05:41;7.00;99.90
1391;DHT22;690;51.454;7.194;2023-04-25T08:08:07;7.10;99.90
1391;DHT22;690;51.454;7.194;2023-04-25T08:10:34;7.20;99.90
1391;DHT22;690;51.454;7.194;2023-04-25T08:13:01;7.10;99.90
1391;DHT22;690;51.454;7.194;2023-04-25T08:15:29;7.10;99.90
1391;DHT22;690;51.454;7.194;2023-04-25T08:17:56;7.10;99.90
1391;DHT22;690;51.454;7.194;2023-04-25T08:20:23;7.20;99.90
1391;DHT22;690;51.454;7.194;2023-04-25T08:22:50;7.50;99.90
1391;DHT22;690;51.454;7.194;2023-04-25T08:25:17;7.70;99.90
1391;DHT22;690;51.454;7.194;2023-04-25T08:27:44;7.90;99.90
1391;DHT22;690;51.454;7.194;2023-04-25T08:30:11;8.20;99.90
1391;DHT22;690;51.454;7.194;2023-04-25T08:32:40;8.40;99.90
1391;DHT22;690;51.454;7.194;2023-04-25T08:35:07;8.40;99.90
1391;DHT22;690;51.454;7.194;2023-04-25T08:37:34;8.40;99.90
1391;DHT22;690;51.454;7.194;2023-04-25T08:40:02;8.40;99.90
1391;DHT22;690;51.454;7.194;2023-04-25T08:42:33;8.30;99.90
1391;DHT22;690;51.454;7.194;2023-04-25T08:45:01;8.20;99.90
1391;DHT22;690;51.454;7.194;2023-04-25T08:47:30;8.00;99.90
1391;DHT22;690;51.454;7.194;2023-04-25T08:50:02;8.00;99.90
1391;DHT22;690;51.454;7.194;2023-04-25T08:52:36;7.90;99.90
1391;DHT22;690;51.454;7.194;2023-04-25T08:55:04;8.00;99.90
1391;DHT22;690;51.454;7.194;2023-04-25T08:57:34;8.20;99.90
1391;DHT22;690;51.454;7.194;2023-04-25T09:00:02;8.10;99.90
1391;DHT22;690;51.454;7.194;2023-04-25T09:02:31;8.10;99.90
1391;DHT22;690;51.454;7.194;2023-04-25T09:04:58;8.20;99.90
1391;DHT22;690;51.454;7.194;2023-04-25T09:07:27;8.40;99.90
1391;DHT22;690;51.454;7.194;2023-04-25T09:09:54;8.50;99.90
1391;DHT22;690;51.454;7.194;2023-04-25T09:12:21;8.80;99.90
1391;DHT22;690;51.454;7.194;2023-04-25T09:15:06;8.60;99.90
1391;DHT22;690;51.454;7.194;2023-04-25T09:17:33;8.60;99.90
1391;DHT22;690;51.454;7.194;2023-04-25T09:20:07;8.90;99.90
1391;DHT22;690;51.454;7.194;2023-04-25T09:22:36;9.20;99.90
1391;DHT22;690;51.454;7.194;2023-04-25T09:25:08;9.30;99.90
1391;DHT22;690;51.454;7.194;2023-04-25T09:27:35;9.20;99.90
1391;DHT22;690;51.454;7.194;2023-04-25T09:30:03;8.80;99.90
1391;DHT22;690;51.454;7.194;2023-04-25T09:32:30;8.70;99.90
1391;DHT22;690;51.454;7.194;2023-04-25T09:34:58;8.60;99.90
1391;DHT22;690;51.454;7.194;2023-04-25T09:37:27;8.50;99.90
1391;DHT22;690;51.454;7.194;2023-04-25T09:39:56;8.50;99.90
1391;DHT22;690;51.454;7.194;2023-04-25T09:42:25;8.60;99.90
1391;DHT22;690;51.454;7.194;2023-04-25T09:44:55;8.60;99.90
1391;DHT22;690;51.454;7.194;2023-04-25T09:47:23;8.70;99.90
1391;DHT22;690;51.454;7.194;2023-04-25T09:49:51;8.90;99.90
1391;DHT22;690;51.454;7.194;2023-04-25T09:52:19;8.90;99.90
1391;DHT22;690;51.454;7.194;2023-04-25T09:54:48;8.80;99.90
1391;DHT22;690;51.454;7.194;2023-04-25T09:57:17;8.70;99.90
1391;DHT22;690;51.454;7.194;2023-04-25T09:59:46;8.40;99.90
1391;DHT22;690;51.454;7.194;2023-04-25T10:02:15;8.40;99.90
1391;DHT22;690;51.454;7.194;2023-04-25T10:04:45;8.40;99.90
1391;DHT22;690;51.454;7.194;2023-04-25T10:07:14;8.50;99.90
1391;DHT22;690;51.454;7.194;2023-04-25T10:09:41;8.70;99.90
1391;DHT22;690;51.454;7.194;2023-04-25T10:12:11;8.90;99.90
1391;DHT22;690;51.454;7.194;2023-04-25T10:14:39;9.10;99.90
1391;DHT22;690;51.454;7.194;2023-04-25T10:17:08;9.30;99.90
1391;DHT22;690;51.454;7.194;2023-04-25T10:19:37;9.40;99.90
1391;DHT22;690;51.454;7.194;2023-04-25T10:22:07;9.50;99.90
1391;DHT22;690;51.454;7.194;2023-04-25T10:24:35;9.60;99.90
1391;DHT22;690;51.454;7.194;2023-04-25T10:27:03;9.70;99.90
1391;DHT22;690;51.454;7.194;2023-04-25T10:29:31;9.70;99.90
1391;DHT22;690;51.454;7.194;2023-04-25T10:31:59;9.60;99.90
1391;DHT22;690;51.454;7.194;2023-04-25T10:34:39;9.40;99.90
1391;DHT22;690;51.454;7.194;2023-04-25T10:37:09;9.40;99.90
1391;DHT22;690;51.454;7.194;2023-04-25T10:39:38;9.20;99.90
1391;DHT22;690;51.454;7.194;2023-04-25T10:42:05;8.90;99.90
1391;DHT22;690;51.454;7.194;2023-04-25T10:44:33;8.70;99.90
1391;DHT22;690;51.454;7.194;2023-04-25T10:47:02;8.50;99.90
1391;DHT22;690;51.454;7.194;2023-04-25T10:49:33;8.20;99.90
1391;DHT22;690;51.454;7.194;2023-04-25T10:52:14;7.80;99.90
1391;DHT22;690;51.454;7.194;2023-04-25T10:54:42;7.50;99.90
1391;DHT22;690;51.454;7.194;2023-04-25T10:57:30;7.40;99.90
1391;DHT22;690;51.454;7.194;2023-04-25T11:00:02;7.40;99.90
1391;DHT22;690;51.454;7.194;2023-04-25T11:02:37;7.40;99.90
1391;DHT22;690;51.454;7.194;2023-04-25T11:05:05;7.40;99.90
1391;DHT22;690;51.454;7.194;2023-04-25T11:07:38;7.50;99.90
1391;DHT22;690;51.454;7.194;2023-04-25T11:10:06;7.40;99.90
1391;DHT22;690;51.454;7.194;2023-04-25T11:12:33;7.40;99.90
1391;DHT22;690;51.454;7.194;2023-04-25T11:15:07;7.10;99.90
1391;DHT22;690;51.454;7.194;2023-04-25T11:17:35;7.00;99.90
1391;DHT22;690;51.454;7.194;2023-04-25T11:20:03;7.00;99.90
1391;DHT22;690;51.454;7.194;2023-04-25T11:22:34;7.10;99.90
1391;DHT22;690;51.454;7.194;2023-04-25T11:25:05;7.40;99.90
1391;DHT22;690;51.454;7.194;2023-04-25T11:27:32;7.70;99.90
1391;DHT22;690;51.454;7.194;2023-04-25T11:30:10;8.10;99.90
1391;DHT22;690;51.454;7.194;2023-04-25T11:32:41;8.40;99.90
1391;DHT22;690;51.454;7.194;2023-04-25T11:35:09;8.70;99.90
1391;DHT22;690;51.454;7.194;2023-04-25T11:37:36;8.80;99.90
1391;DHT22;690;51.454;7.194;2023-04-25T11:40:04;8.90;99.90
1391;DHT22;690;51.454;7.194;2023-04-25T11:42:32;8.90;99.90
1391;DHT22;690;51.454;7.194;2023-04-25T11:44:59;8.90;99.90
1391;DHT22;690;51.454;7.194;2023-04-25T11:47:29;8.90;99.90
1391;DHT22;690;51.454;7.194;2023-04-25T11:49:59;8.80;99.90
1391;DHT22;690;51.454;7.194;2023-04-25T11:52:36;8.60;99.90
1391;DHT22;690;51.454;7.194;2023-04-25T11:55:05;8.50;99.90
1391;DHT22;690;51.454;7.194;2023-04-25T11:57:32;8.00;99.90
1391;DHT22;690;51.454;7.194;2023-04-25T12:00:06;8.00;99.90
1391;DHT22;690;51.454;7.194;2023-04-25T12:02:35;7.90;99.90
1391;DHT22;690;51.454;7.194;2023-04-25T12:05:06;8.00;99.90
1391;DHT22;690;51.454;7.194;2023-04-25T12:07:33;8.10;99.90
1391;DHT22;690;51.454;7.194;2023-04-25T12:10:05;8.20;99.90
1391;DHT22;690;51.454;7.194;2023-04-25T12:12:33;8.30;99.90
1391;DHT22;690;51.454;7.194;2023-04-25T12:15:09;8.40;99.90
1391;DHT22;690;51.454;7.194;2023-04-25T12:17:36;8.50;99.90
1391;DHT22;690;51.454;7.194;2023-04-25T12:20:10;8.70;99.90
1391;DHT22;690;51.454;7.194;2023-04-25T12:22:37;8.90;99.90
1391;DHT22;690;51.454;7.194;2023-04-25T12:25:04;9.20;99.90
1391;DHT22;690;51.454;7.194;2023-04-25T12:27:33;9.50;99.90
1391;DHT22;690;51.454;7.194;2023-04-25T12:30:01;9.70;99.90
1391;DHT22;690;51.454;7.194;2023-04-25T12:32:29;9.90;99.90
1391;DHT22;690;51.454;7.194;2023-04-25T12:34:56;9.90;99.90
1391;DHT22;690;51.454;7.194;2023-04-25T12:37:25;9.90;99.90
1391;DHT22;690;51.454;7.194;2023-04-25T12:39:51;10.10;99.90
1391;DHT22;690;51.454;7.194;2023-04-25T12:42:19;10.00;99.90
1391;DHT22;690;51.454;7.194;2023-04-25T12:44:51;10.00;99.90
1391;DHT22;690;51.454;7.194;2023-04-25T12:47:19;9.90;99.90
1391;DHT22;690;51.454;7.194;2023-04-25T12:49:48;9.80;99.90
1391;DHT22;690;51.454;7.194;2023-04-25T12:52:20;9.50;99.90
1391;DHT22;690;51.454;7.194;2023-04-25T12:54:48;9.40;99.90
1391;DHT22;690;51.454;7.194;2023-04-25T12:57:15;9.30;99.90
1391;DHT22;690;51.454;7.194;2023-04-25T12:59:42;9.10;99.90
1391;DHT22;690;51.454;7.194;2023-04-25T13:02:09;8.80;99.90
1391;DHT22;690;51.454;7.194;2023-04-25T13:04:36;8.90;99.90
1391;DHT22;690;51.454;7.194;2023-04-25T13:07:03;8.90;99.90
1391;DHT22;690;51.454;7.194;2023-04-25T13:09:30;8.80;99.90
1391;DHT22;690;51.454;7.194;2023-04-25T13:11:59;8.70;99.90
1391;DHT22;690;51.454;7.194;2023-04-25T13:14:25;8.60;99.90
1391;DHT22;690;51.454;7.194;2023-04-25T13:16:52;8.40;99.90
1391;DHT22;690;51.454;7.194;2023-04-25T13:19:20;8.40;99.90
1391;DHT22;690;51.454;7.194;2023-04-25T13:21:47;8.50;99.90
1391;DHT22;690;51.454;7.194;2023-04-25T13:24:14;8.70;99.90
1391;DHT22;690;51.454;7.194;2023-04-25T13:26:41;8.90;99.90
1391;DHT22;690;51.454;7.194;2023-04-25T13:29:09;9.20;99.90
1391;DHT22;690;51.454;7.194;2023-04-25T13:31:36;9.20;99.90
1391;DHT22;690;51.454;7.194;2023-04-25T13:34:03;9.20;99.90
1391;DHT22;690;51.454;7.194;2023-04-25T13:36:30;8.80;99.90
1391;DHT22;690;51.454;7.194;2023-04-25T13:38:57;8.70;99.90
1391;DHT22;690;51.454;7.194;2023-04-25T13:41:24;8.70;99.90
1391;DHT22;690;51.454;7.194;2023-04-25T13:43:51;8.70;99.90
1391;DHT22;690;51.454;7.194;2023-04-25T13:46:19;8.90;99.90
1391;DHT22;690;51.454;7.194;2023-04-25T13:48:46;9.00;99.90
1391;DHT22;690;51.454;7.194;2023-04-25T13:51:15;9.20;99.90
1391;DHT22;690;51.454;7.194;2023-04-25T13:53:43;9.40;99.90
1391;DHT22;690;51.454;7.194;2023-04-25T13:56:10;9.60;99.90
1391;DHT22;690;51.454;7.194;2023-04-25T13:58:37;9.70;99.90
1391;DHT22;690;51.454;7.194;2023-04-25T14:01:04;9.60;99.90
1391;DHT22;690;51.454;7.194;2023-04-25T14:03:33;9.70;99.90
1391;DHT22;690;51.454;7.194;2023-04-25T14:05:59;9.90;99.90
1391;DHT22;690;51.454;7.194;2023-04-25T14:08:26;10.00;99.90
1391;DHT22;690;51.454;7.194;2023-04-25T14:10:54;10.20;99.90
1391;DHT22;690;51.454;7.194;2023-04-25T14:13:21;10.40;99.90
1391;DHT22;690;51.454;7.194;2023-04-25T14:15:49;10.70;99.90
1391;DHT22;690;51.454;7.194;2023-04-25T14:18:17;11.10;99.90
1391;DHT22;690;51.454;7.194;2023-04-25T14:20:45;11.30;99.90
1391;DHT22;690;51.454;7.194;2023-04-25T14:23:12;11.30;99.90
1391;DHT22;690;51.454;7.194;2023-04-25T14:25:39;11.10;99.90
1391;DHT22;690;51.454;7.194;2023-04-25T14:28:07;10.90;99.90
1391;DHT22;690;51.454;7.194;2023-04-25T14:30:34;10.70;99.90
1391;DHT22;690;51.454;7.194;2023-04-25T14:33:01;10.60;99.90
1391;DHT22;690;51.454;7.194;2023-04-25T14:35:28;10.70;99.90
1391;DHT22;690;51.454;7.194;2023-04-25T14:37:56;10.60;99.90
1391;DHT22;690;51.454;7.194;2023-04-25T14:40:23;10.40;99.90
1391;DHT22;690;51.454;7.194;2023-04-25T14:42:54;10.30;99.90
1391;DHT22;690;51.454;7.194;2023-04-25T14:45:22;10.20;99.90
1391;DHT22;690;51.454;7.194;2023-04-25T14:47:49;10.20;99.90
1391;DHT22;690;51.454;7.194;2023-04-25T14:50:16;10.30;99.90
1391;DHT22;690;51.454;7.194;2023-04-25T14:52:43;10.20;99.90
1391;DHT22;690;51.454;7.194;2023-04-25T14:55:11;9.90;99.90
1391;DHT22;690;51.454;7.194;2023-04-25T14:57:38;9.70;99.90
1391;DHT22;690;51.454;7.194;2023-04-25T15:00:06;9.40;99.90
1391;DHT22;690;51.454;7.194;2023-04-25T15:02:35;9.10;99.90
1391;DHT22;690;51.454;7.194;2023-04-25T15:05:02;9.00;99.90
1391;DHT22;690;51.454;7.194;2023-04-25T15:07:29;9.20;99.90
1391;DHT22;690;51.454;7.194;2023-04-25T15:09:56;9.40;99.90
1391;DHT22;690;51.454;7.194;2023-04-25T15:12:25;9.30;99.90
1391;DHT22;690;51.454;7.194;2023-04-25T15:14:54;9.10;99.90
1391;DHT22;690;51.454;7.194;2023-04-25T15:17:21;9.10;99.90
1391;DHT22;690;51.454;7.194;2023-04-25T15:19:48;9.10;99.90
1391;DHT22;690;51.454;7.194;2023-04-25T15:22:15;9.10;99.90
1391;DHT22;690;51.454;7.194;2023-04-25T15:24:42;9.00;99.90
1391;DHT22;690;51.454;7.194;2023-04-25T15:27:09;9.10;99.90
1391;DHT22;690;51.454;7.194;2023-04-25T15:29:37;9.20;99.90
1391;DHT22;690;51.454;7.194;2023-04-25T15:32:04;9.30;99.90
1391;DHT22;690;51.454;7.194;2023-04-25T15:34:31;9.60;99.90
1391;DHT22;690;51.454;7.194;2023-04-25T15:36:58;9.90;99.90
1391;DHT22;690;51.454;7.194;2023-04-25T15:39:25;10.40;99.90
1391;DHT22;690;51.454;7.194;2023-04-25T15:41:52;10.80;99.90
1391;DHT22;690;51.454;7.194;2023-04-25T15:44:19;11.10;99.90
1391;DHT22;690;51.454;7.194;2023-04-25T15:46:47;11.70;99.90
1391;DHT22;690;51.454;7.194;2023-04-25T15:49:14;12.30;99.90
1391;DHT22;690;51.454;7.194;2023-04-25T15:51:41;12.80;99.90
1391;DHT22;690;51.454;7.194;2023-04-25T15:54:08;13.10;99.90
1391;DHT22;690;51.454;7.194;2023-04-25T15:56:35;13.30;99.90
1391;DHT22;690;51.454;7.194;2023-04-25T15:59:02;13.80;99.90
1391;DHT22;690;51.454;7.194;2023-04-25T16:01:29;13.70;99.90
1391;DHT22;690;51.454;7.194;2023-04-25T16:03:58;13.10;99.90
1391;DHT22;690;51.454;7.194;2023-04-25T16:06:26;12.20;99.90
1391;DHT22;690;51.454;7.194;2023-04-25T16:08:53;11.30;99.90
1391;DHT22;690;51.454;7.194;2023-04-25T16:11:20;10.80;99.90
1391;DHT22;690;51.454;7.194;2023-04-25T16:13:47;11.00;99.90
1391;DHT22;690;51.454;7.194;2023-04-25T16:16:14;10.90;99.90
1391;DHT22;690;51.454;7.194;2023-04-25T16:18:41;10.30;99.90
1391;DHT22;690;51.454;7.194;2023-04-25T16:21:09;9.60;99.90
1391;DHT22;690;51.454;7.194;2023-04-25T16:23:41;9.20;99.90
1391;DHT22;690;51.454;7.194;2023-04-25T16:26:09;9.00;99.90
1391;DHT22;690;51.454;7.194;2023-04-25T16:28:36;8.80;99.90
1391;DHT22;690;51.454;7.194;2023-04-25T16:31:03;8.60;99.90
1391;DHT22;690;51.454;7.194;2023-04-25T16:33:31;8.50;99.90
1391;DHT22;690;51.454;7.194;2023-04-25T16:35:58;8.40;99.90
1391;DHT22;690;51.454;7.194;2023-04-25T16:38:26;8.30;99.90
1391;DHT22;690;51.454;7.194;2023-04-25T16:40:53;8.50;99.90